Time;durP1;ratioP1;P1;durP2;ratioP2;P2;SDS_P1;SDS_P2;PMS_P1;PMS_P2;Temp;Humidity;BMP_temperature;BMP_pressure;BME280_temperature;BME280_humidity;BME280_pressure;Samples;Min_cycle;Max_cycle;Signal;HPM_P1;HPM_P2
2022/09/26 00:00:47;;;;;;;23.63;20.00;;;;;;;10.63;100.00;98817.69;5112797;28;20019;-79
2022/09/26 00:03:12;;;;;;;41.78;30.40;;;;;;;10.59;100.00;98799.75;5113130;28;20020;-79
2022/09/26 00:05:38;;;;;;;38.78;26.17;;;;;;;10.55;100.00;98799.09;5112390;28;20019;-79
2022/09/26 00:08:05;;;;;;;36.47;27.42;;;;;;;10.58;100.00;98811.09;5112677;28;20039;-79
2022/09/26 00:10:32;;;;;;;37.25;26.55;;;;;;;10.51;100.00;98807.19;5112356;28;20039;-79
2022/09/26 00:12:57;;;;;;;37.58;28.55;;;;;;;10.44;100.00;98801.50;5112411;28;20024;-79
2022/09/26 00:15:24;;;;;;;37.25;27.67;;;;;;;10.42;100.00;98799.00;5112448;28;20035;-79
2022/09/26 00:17:49;;;;;;;36.30;27.30;;;;;;;10.35;100.00;98791.63;5112586;28;20092;-79
2022/09/26 00:20:15;;;;;;;32.33;25.77;;;;;;;10.37;100.00;98800.19;5111788;28;20022;-79
2022/09/26 00:22:40;;;;;;;28.25;23.45;;;;;;;10.24;100.00;98787.91;5112177;28;20099;-79
2022/09/26 00:25:06;;;;;;;27.20;20.65;;;;;;;10.29;100.00;98798.03;5112429;28;20028;-79
2022/09/26 00:27:32;;;;;;;28.50;21.25;;;;;;;10.23;100.00;98800.97;5112128;28;20024;-79
2022/09/26 00:29:57;;;;;;;28.50;22.52;;;;;;;10.14;100.00;98788.50;5112590;28;20458;-79
2022/09/26 00:32:23;;;;;;;24.13;21.23;;;;;;;10.13;100.00;98790.25;5112433;28;20012;-79
2022/09/26 00:34:49;;;;;;;25.73;20.05;;;;;;;10.14;100.00;98798.91;5112326;28;20028;-79
2022/09/26 00:37:15;;;;;;;24.88;19.80;;;;;;;10.08;100.00;98789.69;5112336;28;20012;-79
2022/09/26 00:39:40;;;;;;;22.92;18.85;;;;;;;10.11;100.00;98793.88;5112299;28;20020;-79
2022/09/26 00:42:05;;;;;;;35.58;24.42;;;;;;;10.02;100.00;98779.63;5110888;28;20019;-79
2022/09/26 00:44:49;;;;;;;35.17;24.30;;;;;;;10.09;100.00;98782.72;5112234;28;20068;-79
2022/09/26 00:47:34;;;;;;;30.83;22.98;;;;;;;10.07;100.00;98788.03;5112505;28;20064;-79
2022/09/26 00:50:06;;;;;;;36.60;27.40;;;;;;;9.96;100.00;98775.63;5112319;28;20047;-79
2022/09/26 00:52:42;;;;;;;32.33;23.83;;;;;;;10.00;100.00;98786.72;5112323;28;20515;-79
2022/09/26 00:55:12;;;;;;;31.60;24.00;;;;;;;9.94;100.00;98772.31;5112399;28;20024;-79
2022/09/26 00:57:44;;;;;;;30.17;24.38;;;;;;;9.92;100.00;98765.50;5112011;28;20509;-79
2022/09/26 01:00:13;;;;;;;25.50;21.35;;;;;;;9.93;100.00;98772.38;5112155;28;20101;-79
2022/09/26 01:02:39;;;;;;;29.52;24.42;;;;;;;9.92;100.00;98766.34;5112013;28;20023;-79
2022/09/26 01:05:06;;;;;;;30.02;23.15;;;;;;;9.89;100.00;98765.66;5111931;28;20020;-79
2022/09/26 01:07:33;;;;;;;27.30;23.35;;;;;;;9.81;100.00;98749.66;5111929;28;20055;-79
2022/09/26 01:10:02;;;;;;;25.23;22.02;;;;;;;9.75;100.00;98743.91;5112559;28;20158;-79
2022/09/26 01:12:27;;;;;;;26.17;21.58;;;;;;;9.72;100.00;98746.66;5111958;28;20027;-79
2022/09/26 01:14:54;;;;;;;24.17;19.67;;;;;;;9.71;100.00;98752.81;5112376;28;20490;-79
2022/09/26 01:17:22;;;;;;;21.58;19.27;;;;;;;9.71;100.00;98755.41;5111999;28;20016;-79
2022/09/26 01:19:53;;;;;;;24.65;20.75;;;;;;;9.72;100.00;98756.25;5111546;28;20443;-79
2022/09/26 01:22:47;;;;;;;25.13;20.52;;;;;;;9.68;100.00;98752.97;5112110;28;20047;-79
2022/09/26 01:25:44;;;;;;;24.13;20.98;;;;;;;9.68;100.00;98752.13;5112487;28;20015;-79
2022/09/26 01:28:29;;;;;;;27.70;21.00;;;;;;;9.63;100.00;98755.00;5111809;28;20456;-79
2022/09/26 01:31:33;;;;;;;27.35;21.30;;;;;;;9.62;100.00;98740.34;5112564;28;20019;-79
2022/09/26 01:34:01;;;;;;;23.48;20.42;;;;;;;9.60;100.00;98755.16;5072512;28;20385;-79
2022/09/26 01:37:09;;;;;;;23.35;18.75;;;;;;;9.58;100.00;98759.63;5072081;28;20037;-79
2022/09/26 01:39:53;;;;;;;20.38;18.23;;;;;;;9.57;100.00;98754.53;5012599;28;20026;-79
2022/09/26 01:42:38;;;;;;;21.70;19.30;;;;;;;9.52;100.00;98748.72;5012666;28;20489;-79
2022/09/26 01:45:18;;;;;;;21.30;18.63;;;;;;;9.49;100.00;98748.00;5012610;28;20037;-79
2022/09/26 01:47:59;;;;;;;20.67;18.47;;;;;;;9.41;100.00;98738.97;5012381;28;20041;-79
2022/09/26 01:50:33;;;;;;;22.08;18.90;;;;;;;9.47;100.00;98742.03;5012442;28;20038;-79
2022/09/26 01:53:26;;;;;;;19.88;16.63;;;;;;;9.44;100.00;98742.22;5012366;28;20061;-79
2022/09/26 01:56:00;;;;;;;20.05;17.75;;;;;;;9.42;100.00;98728.47;5012417;28;20029;-79
2022/09/26 01:58:41;;;;;;;18.33;16.40;;;;;;;9.44;100.00;98739.63;5012287;28;20112;-79
2022/09/26 02:01:10;;;;;;;20.60;17.60;;;;;;;9.40;100.00;98727.72;5012548;28;20041;-79
2022/09/26 02:03:42;;;;;;;18.88;16.88;;;;;;;9.38;100.00;98726.13;4995375;28;20120;-79
2022/09/26 02:06:21;;;;;;;22.92;17.80;;;;;;;9.33;100.00;98722.94;5012161;28;20522;-79
2022/09/26 02:09:06;;;;;;;19.98;17.23;;;;;;;9.26;100.00;98719.84;5020063;28;20052;-79
2022/09/26 02:11:31;;;;;;;20.13;18.13;;;;;;;9.28;100.00;98723.22;5051561;28;20037;-79
2022/09/26 02:14:09;;;;;;;22.10;18.23;;;;;;;9.28;100.00;98723.22;5096459;28;20036;-79
2022/09/26 02:16:45;;;;;;;20.40;17.67;;;;;;;9.27;100.00;98724.16;5114565;28;20062;-79
2022/09/26 02:19:25;;;;;;;22.15;17.60;;;;;;;9.24;100.00;98721.72;5114863;28;20016;-79
2022/09/26 02:21:51;;;;;;;20.35;18.23;;;;;;;9.19;100.00;98716.78;5114659;28;20023;-79
2022/09/26 02:24:17;;;;;;;20.20;18.10;;;;;;;9.18;100.00;98715.06;5114776;28;20023;-79
2022/09/26 02:26:42;;;;;;;22.85;19.13;;;;;;;9.12;100.00;98704.22;5113322;28;20047;-79
2022/09/26 02:29:11;;;;;;;21.35;18.48;;;;;;;9.16;100.00;98698.75;5114780;27;20024;-79
2022/09/26 02:31:48;;;;;;;21.08;18.42;;;;;;;9.14;100.00;98697.16;5114134;28;20460;-79
2022/09/26 02:34:14;;;;;;;22.75;20.13;;;;;;;9.13;100.00;98695.47;5114455;28;20060;-79
2022/09/26 02:36:39;;;;;;;23.17;19.05;;;;;;;9.14;100.00;98698.00;5114168;28;20126;-79
2022/09/26 02:39:05;;;;;;;26.75;19.50;;;;;;;9.12;100.00;98697.25;5114224;28;20059;-79
2022/09/26 02:41:55;;;;;;;20.27;18.05;;;;;;;9.14;100.00;98699.75;5114173;28;20039;-79
2022/09/26 02:44:47;;;;;;;20.60;18.40;;;;;;;9.12;100.00;98702.44;5070324;28;20089;-79
2022/09/26 02:47:37;;;;;;;22.63;20.17;;;;;;;9.14;100.00;98697.16;5071221;28;20079;-79
2022/09/26 02:50:20;;;;;;;23.00;20.60;;;;;;;9.10;100.00;98699.09;5070996;28;20032;-79
2022/09/26 02:53:00;;;;;;;26.25;20.17;;;;;;;8.99;100.00;98694.50;5070749;28;20071;-79
2022/09/26 02:55:38;;;;;;;24.55;20.13;;;;;;;9.03;100.00;98709.91;5070860;28;20482;-79
2022/09/26 02:58:35;;;;;;;25.13;21.92;;;;;;;9.05;100.00;98711.50;5070783;28;20032;-79
2022/09/26 03:01:21;;;;;;;25.42;21.90;;;;;;;9.05;100.00;98702.88;5070876;28;20373;-79
2022/09/26 03:03:58;;;;;;;27.75;24.38;;;;;;;9.02;100.00;98697.81;5070145;28;20068;-79
2022/09/26 03:06:29;;;;;;;37.17;28.63;;;;;;;8.93;100.00;98681.00;5070526;28;20089;-79
2022/09/26 03:08:55;;;;;;;31.67;24.88;;;;;;;9.06;100.00;98707.13;5070426;28;20044;-79
2022/09/26 03:11:24;;;;;;;35.28;26.30;;;;;;;9.01;100.00;98697.00;5070685;28;20425;-79
2022/09/26 03:13:53;;;;;;;35.63;28.05;;;;;;;9.13;100.00;98706.72;5070258;28;20552;-79
2022/09/26 03:16:19;;;;;;;34.13;27.75;;;;;;;9.18;100.00;98703.84;5070328;28;20549;-79
2022/09/26 03:18:50;;;;;;;45.53;33.92;;;;;;;9.22;100.00;98690.59;5070252;28;20027;-79
2022/09/26 03:21:16;;;;;;;44.00;32.85;;;;;;;9.35;100.00;98697.69;5090617;28;20096;-79
2022/09/26 03:23:41;;;;;;;44.53;33.75;;;;;;;9.36;100.00;98695.03;5113275;28;20032;-78
2022/09/26 03:26:13;;;;;;;46.50;34.55;;;;;;;9.39;100.00;98681.00;5113577;28;20030;-79
2022/09/26 03:28:40;;;;;;;60.80;38.33;;;;;;;9.47;100.00;98679.66;5113005;28;20427;-79
2022/09/26 03:31:06;;;;;;;58.95;38.88;;;;;;;9.55;100.00;98662.78;5113126;28;20099;-79
2022/09/26 03:33:31;;;;;;;61.22;40.08;;;;;;;9.65;100.00;98669.09;5113350;28;20102;-79
2022/09/26 03:35:58;;;;;;;67.07;42.05;;;;;;;9.64;100.00;98662.25;5113192;28;20020;-79
2022/09/26 03:38:24;;;;;;;64.88;42.35;;;;;;;9.68;100.00;98669.78;5113124;28;20051;-79
2022/09/26 03:40:50;;;;;;;70.57;43.88;;;;;;;9.62;100.00;98664.94;5113161;28;20055;-79
2022/09/26 03:43:15;;;;;;;64.82;42.97;;;;;;;9.61;100.00;98665.03;5113130;28;20023;-79
2022/09/26 03:45:40;;;;;;;70.90;44.22;;;;;;;9.63;100.00;98661.41;5112749;28;20456;-79
2022/09/26 03:48:06;;;;;;;60.72;41.70;;;;;;;9.67;100.00;98654.28;5113059;28;20106;-79
2022/09/26 03:50:35;;;;;;;57.25;40.65;;;;;;;9.68;100.00;98667.16;5113113;28;20061;-79
2022/09/26 03:53:00;;;;;;;60.33;39.70;;;;;;;9.63;100.00;98664.00;5112971;28;20015;-79
2022/09/26 03:55:26;;;;;;;59.97;41.65;;;;;;;9.72;100.00;98678.22;5112871;28;20028;-79
2022/09/26 03:57:52;;;;;;;57.72;39.90;;;;;;;9.65;100.00;98669.97;5112740;28;20095;-79
2022/09/26 04:00:17;;;;;;;49.58;36.42;;;;;;;9.67;100.00;98677.66;5112790;28;20077;-79
2022/09/26 04:02:43;;;;;;;41.50;34.65;;;;;;;9.67;100.00;98669.88;5112719;28;20047;-79
2022/09/26 04:05:09;;;;;;;36.53;30.35;;;;;;;9.64;100.00;98665.66;5112749;28;20020;-79
2022/09/26 04:07:34;;;;;;;34.78;30.60;;;;;;;9.62;100.00;98662.34;5111121;28;20392;-79
2022/09/26 04:10:00;;;;;;;32.10;28.50;;;;;;;9.65;100.00;98664.78;5112804;28;20016;-79
2022/09/26 04:12:25;;;;;;;32.20;28.80;;;;;;;9.62;100.00;98664.94;5130507;27;20042;-79
2022/09/26 04:14:51;;;;;;;31.05;27.52;;;;;;;9.48;100.00;98639.75;5130284;27;20042;-79
2022/09/26 04:17:17;;;;;;;33.05;29.45;;;;;;;9.56;100.00;98657.47;5130691;27;20035;-79
2022/09/26 04:19:43;;;;;;;31.27;27.88;;;;;;;9.48;100.00;98651.88;5130297;27;20020;-79
2022/09/26 04:22:08;;;;;;;30.77;27.77;;;;;;;9.50;100.00;98657.84;5130526;27;20054;-79
2022/09/26 04:24:33;;;;;;;31.42;28.23;;;;;;;9.44;100.00;98653.03;5130522;27;20027;-78
2022/09/26 04:26:59;;;;;;;28.92;26.05;;;;;;;9.46;100.00;98654.59;5130268;28;20530;-79
2022/09/26 04:29:26;;;;;;;30.23;27.25;;;;;;;9.48;100.00;98657.94;5130402;28;20020;-79
2022/09/26 04:31:51;;;;;;;28.70;25.85;;;;;;;9.46;100.00;98651.16;5130169;28;20031;-79
2022/09/26 04:34:17;;;;;;;32.13;28.83;;;;;;;9.48;100.00;98652.75;5130483;28;20024;-79
2022/09/26 04:36:42;;;;;;;32.72;29.42;;;;;;;9.46;100.00;98632.97;5130181;28;20482;-79
2022/09/26 04:39:08;;;;;;;30.25;27.05;;;;;;;9.46;100.00;98641.59;5130427;28;20030;-79
2022/09/26 04:41:33;;;;;;;46.40;39.35;;;;;;;9.47;100.00;98640.66;5130281;28;20512;-79
2022/09/26 04:44:00;;;;;;;88.63;66.30;;;;;;;9.39;100.00;98623.84;5116685;28;20084;-79
2022/09/26 04:46:27;;;;;;;30.77;27.58;;;;;;;9.36;100.00;98622.28;5112482;28;20020;-79
2022/09/26 04:48:57;;;;;;;43.35;35.92;;;;;;;9.34;100.00;98631.06;5112510;28;20024;-79
2022/09/26 04:51:24;;;;;;;29.30;26.25;;;;;;;9.33;100.00;98630.25;5112370;28;20075;-79
2022/09/26 04:53:50;;;;;;;37.78;28.92;;;;;;;9.27;100.00;98627.16;5112239;28;20105;-79
2022/09/26 04:56:18;;;;;;;33.50;28.80;;;;;;;9.33;100.00;98630.25;5112084;28;20094;-79
2022/09/26 04:58:44;;;;;;;29.48;26.17;;;;;;;9.37;100.00;98636.94;5111819;28;20177;-79
2022/09/26 05:01:12;;;;;;;29.40;26.33;;;;;;;9.35;100.00;98630.97;5112370;28;20027;-79
2022/09/26 05:03:38;;;;;;;29.45;26.33;;;;;;;9.37;100.00;98630.91;5111999;28;20020;-79
2022/09/26 05:06:07;;;;;;;28.02;25.38;;;;;;;9.42;100.00;98637.50;5112729;28;20024;-79
2022/09/26 05:08:36;;;;;;;27.65;24.95;;;;;;;9.38;100.00;98636.00;5115868;28;20039;-79
2022/09/26 05:11:02;;;;;;;26.73;24.02;;;;;;;9.42;100.00;98641.88;5115568;28;20024;-79
2022/09/26 05:13:29;;;;;;;26.63;23.77;;;;;;;9.41;100.00;98628.03;5116078;28;20061;-79
2022/09/26 05:15:57;;;;;;;26.58;23.77;;;;;;;9.48;100.00;98631.97;5119515;27;20019;-79
2022/09/26 05:18:22;;;;;;;28.77;25.40;;;;;;;9.46;100.00;98631.19;5133852;27;20395;-79
2022/09/26 05:20:49;;;;;;;32.42;27.73;;;;;;;9.45;100.00;98626.94;5115588;28;20022;-79
2022/09/26 05:26:18;;;;;;;45.53;35.15;;;;;;;9.49;100.00;98635.41;5122653;27;20020;-79
2022/09/26 05:26:19;;;;;;;28.98;25.58;;;;;;;9.60;100.00;98643.38;5136054;27;20054;-79
2022/09/26 05:28:55;;;;;;;28.73;25.35;;;;;;;9.63;100.00;98640.59;5135975;27;20029;-79
2022/09/26 05:31:24;;;;;;;26.55;23.65;;;;;;;9.74;100.00;98645.19;5132803;27;20188;-79
2022/09/26 05:33:50;;;;;;;26.52;23.73;;;;;;;9.78;100.00;98636.28;5115372;28;20034;-79
2022/09/26 05:36:17;;;;;;;26.50;23.35;;;;;;;9.79;100.00;98626.72;5115472;28;20023;-79
2022/09/26 05:38:44;;;;;;;23.98;21.42;;;;;;;9.82;100.00;98629.09;5115495;28;20030;-79
2022/09/26 05:41:10;;;;;;;23.75;21.35;;;;;;;9.88;100.00;98626.16;5115545;28;20023;-79
2022/09/26 05:43:35;;;;;;;22.45;20.23;;;;;;;9.86;100.00;98615.84;5115446;28;20068;-79
2022/09/26 05:46:04;;;;;;;21.25;19.02;;;;;;;9.93;100.00;98629.31;5115051;27;20019;-79
2022/09/26 05:48:31;;;;;;;19.13;17.10;;;;;;;9.93;100.00;98632.75;5118993;27;20087;-79
2022/09/26 05:51:12;;;;;;;20.13;18.08;;;;;;;9.97;100.00;98625.59;5135991;27;20015;-79
2022/09/26 05:53:38;;;;;;;17.70;15.93;;;;;;;9.98;100.00;98622.88;5135794;27;20019;-79
2022/09/26 05:56:05;;;;;;;17.95;16.08;;;;;;;10.08;100.00;98630.16;5127217;27;20020;-79
2022/09/26 05:58:33;;;;;;;18.48;16.58;;;;;;;10.09;100.00;98624.84;5094631;28;20031;-79
2022/09/26 06:01:09;;;;;;;19.67;16.98;;;;;;;10.09;100.00;98618.81;5094352;28;20020;-79
2022/09/26 06:03:35;;;;;;;19.65;17.58;;;;;;;10.14;100.00;98634.97;5094716;28;20031;-79
2022/09/26 06:06:06;;;;;;;19.10;17.15;;;;;;;10.12;100.00;98632.47;5094450;28;20379;-79
2022/09/26 06:08:33;;;;;;;18.60;16.75;;;;;;;10.11;100.00;98627.34;5094430;28;20048;-79
2022/09/26 06:11:05;;;;;;;17.45;15.75;;;;;;;10.19;100.00;98641.56;5094315;28;20027;-79
2022/09/26 06:13:32;;;;;;;18.80;16.83;;;;;;;10.09;100.00;98627.47;5094298;28;20028;-79
2022/09/26 06:16:05;;;;;;;18.15;16.27;;;;;;;10.19;100.00;98636.34;5094634;28;20027;-79
2022/09/26 06:18:35;;;;;;;17.88;16.08;;;;;;;10.16;100.00;98639.16;5093126;28;20081;-79
2022/09/26 06:21:04;;;;;;;19.45;17.30;;;;;;;10.22;100.00;98651.78;5094130;28;20040;-79
2022/09/26 06:23:31;;;;;;;18.45;16.42;;;;;;;10.19;100.00;98656.34;5094393;28;20020;-79
2022/09/26 06:25:57;;;;;;;21.00;15.50;;;;;;;10.19;100.00;98646.78;5093909;28;20109;-79
2022/09/26 06:28:23;;;;;;;19.15;16.50;;;;;;;10.18;100.00;98649.47;5094311;28;20108;-79
2022/09/26 06:30:49;;;;;;;21.17;17.42;;;;;;;10.22;100.00;98656.16;5093957;28;20094;-79
2022/09/26 06:33:14;;;;;;;24.48;19.60;;;;;;;10.27;100.00;98663.72;5094243;28;20056;-79
2022/09/26 06:35:40;;;;;;;26.25;19.80;;;;;;;10.25;100.00;98656.03;5093869;28;20020;-79
2022/09/26 06:38:05;;;;;;;26.17;19.83;;;;;;;10.29;100.00;98652.31;5093580;28;20031;-79
2022/09/26 06:40:32;;;;;;;25.52;20.27;;;;;;;10.31;100.00;98647.81;5092643;28;20027;-79
2022/09/26 06:42:58;;;;;;;22.58;19.13;;;;;;;10.32;100.00;98651.25;5093780;28;20020;-79
2022/09/26 06:45:23;;;;;;;23.92;19.25;;;;;;;10.29;100.00;98652.31;5093656;28;20115;-79
2022/09/26 06:47:48;;;;;;;21.75;19.40;;;;;;;10.35;100.00;98656.28;5093981;28;20024;-79
2022/09/26 06:50:14;;;;;;;21.05;18.85;;;;;;;10.39;100.00;98656.00;5093599;28;20405;-79
2022/09/26 06:52:42;;;;;;;20.50;18.15;;;;;;;10.41;100.00;98659.34;5093749;28;20031;-79
2022/09/26 06:55:09;;;;;;;18.75;16.75;;;;;;;10.31;100.00;98641.78;5093846;28;20028;-79
2022/09/26 06:57:39;;;;;;;24.58;18.77;;;;;;;10.43;100.00;98661.84;5093676;28;20034;-79
2022/09/26 07:00:10;;;;;;;20.52;17.35;;;;;;;10.45;100.00;98666.06;5093471;28;20111;-79
2022/09/26 07:02:35;;;;;;;19.25;17.15;;;;;;;10.42;100.00;98649.78;5093541;28;20059;-79
2022/09/26 07:05:04;;;;;;;19.30;17.40;;;;;;;10.42;100.00;98657.59;5093217;28;20086;-79
2022/09/26 07:07:30;;;;;;;19.38;17.30;;;;;;;10.48;100.00;98671.03;5093375;28;20043;-79
2022/09/26 07:09:56;;;;;;;19.05;17.10;;;;;;;10.45;100.00;98667.81;5093087;28;20030;-79
2022/09/26 07:12:23;;;;;;;21.90;17.50;;;;;;;10.43;100.00;98665.28;5093469;28;20483;-79
2022/09/26 07:14:50;;;;;;;24.38;17.75;;;;;;;10.43;100.00;98665.28;5093168;28;20062;-79
2022/09/26 07:17:16;;;;;;;18.10;16.30;;;;;;;10.45;100.00;98660.84;5093508;28;20024;-79
2022/09/26 07:19:42;;;;;;;19.08;17.02;;;;;;;10.47;100.00;98658.97;5093335;28;20047;-79
2022/09/26 07:22:08;;;;;;;18.58;16.63;;;;;;;10.53;100.00;98668.16;5092845;28;20457;-79
2022/09/26 07:24:34;;;;;;;19.20;16.35;;;;;;;10.55;100.00;98671.50;5093271;28;20038;-80
2022/09/26 07:27:00;;;;;;;19.15;17.15;;;;;;;10.52;100.00;98658.69;5092928;28;20051;-79
2022/09/26 07:29:26;;;;;;;20.92;17.65;;;;;;;10.55;100.00;98660.25;5092790;28;20016;-79
2022/09/26 07:31:52;;;;;;;22.17;16.23;;;;;;;10.58;100.00;98658.31;5092873;28;20039;-79
2022/09/26 07:34:18;;;;;;;19.70;17.50;;;;;;;10.64;100.00;98664.91;5092953;28;20369;-79
2022/09/26 07:36:44;;;;;;;19.13;16.58;;;;;;;10.65;100.00;98662.19;5092587;28;20457;-79
2022/09/26 07:39:09;;;;;;;21.15;17.73;;;;;;;10.64;100.00;98667.50;5092674;28;20107;-79
2022/09/26 07:41:35;;;;;;;21.05;18.73;;;;;;;10.68;100.00;98671.59;5092842;28;20436;-80
2022/09/26 07:44:00;;;;;;;21.02;18.02;;;;;;;10.60;100.00;98651.22;5092637;28;20103;-79
2022/09/26 07:51:55;;;;;;;20.45;18.42;;;;;;;10.73;100.00;98651.28;5092461;28;20054;-79
2022/09/26 07:54:21;;;;;;;20.52;18.42;;;;;;;10.78;100.00;98669.22;5092612;28;20024;-79
2022/09/26 07:56:46;;;;;;;21.33;19.13;;;;;;;10.77;100.00;98649.34;5092432;28;20024;-79
2022/09/26 07:59:12;;;;;;;23.08;20.33;;;;;;;10.83;100.00;98651.53;5092392;28;20023;-79
2022/09/26 08:01:38;;;;;;;29.92;25.05;;;;;;;10.92;100.00;98664.00;5092403;28;20036;-79
2022/09/26 08:04:05;;;;;;;27.40;22.63;;;;;;;10.92;100.00;98653.59;5092000;28;20066;-80
2022/09/26 08:06:32;;;;;;;24.60;21.38;;;;;;;10.98;100.00;98654.00;5092117;28;20027;-80
2022/09/26 08:08:57;;;;;;;25.13;19.95;;;;;;;11.07;100.00;98659.56;5092111;28;20468;-79
2022/09/26 08:11:23;;;;;;;20.67;18.27;;;;;;;11.06;100.00;98645.69;5092218;28;20059;-80
2022/09/26 08:13:49;;;;;;;21.08;18.73;;;;;;;11.18;100.00;98644.09;5092412;28;20069;-80
2022/09/26 08:16:20;;;;;;;20.45;18.23;;;;;;;11.27;100.00;98655.69;5092366;28;20369;-80
2022/09/26 08:18:46;;;;;;;22.70;20.25;;;;;;;11.27;100.00;98647.84;5092236;28;20020;-79
2022/09/26 08:21:11;;;;;;;21.02;18.90;;;;;;;11.22;100.00;98654.19;5091893;28;20046;-80
2022/09/26 08:23:36;;;;;;;20.55;18.45;;;;;;;11.25;100.00;98658.38;5092147;28;20020;-80
2022/09/26 08:26:03;;;;;;;19.75;17.75;;;;;;;11.22;100.00;98648.16;5091727;28;20464;-80
2022/09/26 08:28:29;;;;;;;22.42;19.98;;;;;;;11.28;100.00;98660.78;5092267;28;20012;-80
2022/09/26 08:30:59;;;;;;;20.80;18.50;;;;;;;11.27;100.00;98655.69;5092271;28;20017;-80
2022/09/26 08:33:25;;;;;;;20.83;18.60;;;;;;;11.24;100.00;98648.88;5092240;28;20030;-80
2022/09/26 08:35:50;;;;;;;20.13;18.02;;;;;;;11.29;100.00;98656.41;5092013;28;20333;-80
2022/09/26 08:38:16;;;;;;;19.65;17.75;;;;;;;11.16;100.00;98644.16;5092023;28;20024;-80
2022/09/26 08:41:07;;;;;;;21.00;18.88;;;;;;;11.25;100.00;98653.19;5092282;28;20107;-80
2022/09/26 08:43:44;;;;;;;;;;;;;;;11.29;100.00;98653.78;5096531;28;20027;-79
2022/09/26 08:46:44;;;;;;;20.92;18.65;;;;;;;11.28;100.00;98665.16;5095894;28;19969;-80
2022/09/26 08:49:37;;;;;;;21.47;19.17;;;;;;;11.31;100.00;98657.97;5093347;28;20024;-80
2022/09/26 08:52:11;;;;;;;22.13;19.92;;;;;;;11.35;100.00;98649.03;5093462;28;20592;-80
2022/09/26 08:54:40;;;;;;;22.90;20.48;;;;;;;11.33;100.00;98640.44;5093387;28;20112;-80
2022/09/26 08:57:44;;;;;;;22.23;19.92;;;;;;;11.44;100.00;98658.00;5093303;28;20024;-80
2022/09/26 09:00:20;;;;;;;26.17;23.05;;;;;;;11.49;100.00;98663.75;5052700;28;20045;-79
2022/09/26 09:03:17;;;;;;;26.13;23.02;;;;;;;11.46;100.00;98645.69;5053089;28;20029;-79
2022/09/26 09:05:47;;;;;;;26.70;23.88;;;;;;;11.57;100.00;98655.44;5052867;28;20579;-80
2022/09/26 09:08:20;;;;;;;26.02;23.10;;;;;;;11.61;100.00;98649.06;5052851;28;20102;-80
2022/09/26 09:11:12;;;;;;;23.60;21.10;;;;;;;11.70;100.00;98653.66;5052988;28;20429;-79
2022/09/26 09:13:45;;;;;;;24.27;21.85;;;;;;;11.66;100.00;98632.16;5052906;28;20069;-79
2022/09/26 09:16:20;;;;;;;24.77;21.42;;;;;;;11.77;100.00;98652.31;5052592;28;20032;-79
2022/09/26 09:18:45;;;;;;;23.58;20.63;;;;;;;11.82;100.00;98652.00;5052528;28;20044;-79
2022/09/26 09:21:39;;;;;;;26.88;24.00;;;;;;;11.86;100.00;98636.06;5052509;28;20025;-79
2022/09/26 09:24:45;;;;;;;24.75;22.23;;;;;;;11.93;100.00;98637.34;5052435;28;20029;-79
2022/09/26 09:27:29;;;;;;;33.08;29.58;;;;;;;11.99;100.00;98649.13;5032277;28;20045;-79
2022/09/26 09:30:13;;;;;;;27.90;25.05;;;;;;;12.05;100.00;98635.66;5032464;28;20154;-79
2022/09/26 09:32:50;;;;;;;28.15;24.77;;;;;;;12.04;100.00;98622.69;5032632;28;20373;-79
2022/09/26 09:35:21;;;;;;;30.23;23.50;;;;;;;12.14;100.00;98644.63;5032598;28;20108;-80
2022/09/26 09:37:52;;;;;;;26.95;23.60;;;;;;;12.19;100.00;98648.59;5049177;28;20098;-79
2022/09/26 09:40:39;;;;;;;26.23;23.33;;;;;;;12.26;100.00;98651.59;5052193;28;20070;-80
2022/09/26 09:43:12;;;;;;;24.27;21.48;;;;;;;12.29;100.00;98637.50;5052080;28;20055;-79
2022/09/26 09:45:46;;;;;;;27.70;24.80;;;;;;;12.33;100.00;98650.22;5052694;28;20056;-80
2022/09/26 09:48:12;;;;;;;25.35;22.75;;;;;;;12.36;100.00;98657.03;5052101;28;20027;-80
2022/09/26 09:51:12;;;;;;;27.38;23.52;;;;;;;12.30;100.00;98645.22;5052215;28;20033;-80
2022/09/26 09:53:40;;;;;;;30.10;25.65;;;;;;;12.34;100.00;98661.50;5052060;28;20393;-80
2022/09/26 09:56:08;;;;;;;28.80;23.15;;;;;;;12.32;100.00;98655.56;5051693;28;20033;-80
2022/09/26 09:59:02;;;;;;;25.88;20.10;;;;;;;12.29;100.00;98656.59;5051879;28;20462;-80
2022/09/26 10:01:40;;;;;;;20.83;18.58;;;;;;;12.18;100.00;98646.09;5052126;28;20079;-79
2022/09/26 10:04:12;;;;;;;21.38;17.33;;;;;;;12.13;100.00;98643.78;5079205;28;20121;-79
2022/09/26 10:06:40;;;;;;;17.67;15.35;;;;;;;12.08;100.00;98645.88;5094221;28;20081;-79
2022/09/26 10:09:18;;;;;;;17.90;15.65;;;;;;;12.06;100.00;98644.31;5094315;28;20020;-79
2022/09/26 10:11:44;;;;;;;20.73;16.98;;;;;;;12.12;100.00;98657.78;5093171;28;20047;-78
2022/09/26 10:14:18;;;;;;;21.15;17.98;;;;;;;12.13;100.00;98653.38;5094158;28;20048;-79
2022/09/26 10:17:08;;;;;;;25.17;21.45;;;;;;;12.12;100.00;98660.38;5094341;28;20085;-79
2022/09/26 10:19:36;;;;;;;24.00;20.38;;;;;;;12.10;100.00;98658.84;5094161;28;20032;-79
2022/09/26 10:22:02;;;;;;;22.92;20.08;;;;;;;12.11;100.00;98668.34;5094123;28;20024;-79
2022/09/26 10:24:39;;;;;;;22.38;18.63;;;;;;;12.03;100.00;98647.97;5094234;28;20058;-79
2022/09/26 10:27:34;;;;;;;19.95;17.35;;;;;;;12.10;100.00;98658.84;5093898;28;20101;-79
2022/09/26 10:30:30;;;;;;;14.88;13.30;;;;;;;12.12;100.00;98662.16;5094039;28;20024;-79
2022/09/26 10:33:00;;;;;;;16.77;14.13;;;;;;;12.12;100.00;98655.16;5094093;28;20027;-79
2022/09/26 10:35:45;;;;;;;16.35;14.48;;;;;;;12.18;100.00;98657.38;5093904;28;20050;-79
2022/09/26 10:38:27;;;;;;;15.98;12.40;;;;;;;12.20;100.00;98658.09;5093627;28;20051;-79
2022/09/26 10:40:58;;;;;;;14.30;11.90;;;;;;;12.31;100.00;98661.75;5093957;28;20074;-79
2022/09/26 10:43:36;;;;;;;14.05;12.05;;;;;;;12.36;100.00;98657.84;5095296;28;20028;-76
2022/09/26 10:46:09;;;;;;;12.27;10.60;;;;;;;12.48;100.00;98671.84;5113960;28;20027;-76
2022/09/26 10:48:55;;;;;;;11.57;9.90;;;;;;;12.47;100.00;98671.00;5114029;28;20371;-77
2022/09/26 10:51:23;;;;;;;14.23;10.15;;;;;;;12.46;100.00;98671.09;5113805;28;20031;-77
2022/09/26 10:53:54;;;;;;;15.57;11.70;;;;;;;12.42;100.00;98669.66;5114147;28;20020;-77
2022/09/26 10:56:29;;;;;;;13.15;10.25;;;;;;;12.41;100.00;98670.59;5113825;28;20030;-77
2022/09/26 10:59:04;;;;;;;12.95;10.70;;;;;;;12.34;100.00;98654.50;5113837;28;20022;-77
2022/09/26 11:01:31;;;;;;;11.82;10.27;;;;;;;12.39;100.00;98660.25;5114186;28;20019;-77
2022/09/26 11:07:06;;;;;;;21.48;17.55;;;;;;;12.26;100.00;98635.94;5050499;28;20098;-77
2022/09/26 11:09:31;;;;;;;25.58;20.30;;;;;;;12.40;100.00;98650.66;5050852;28;20044;-78
2022/09/26 11:11:57;;;;;;;30.17;21.92;;;;;;;12.45;100.00;98646.75;5050587;28;20033;-77
2022/09/26 11:14:31;;;;;;;37.00;25.42;;;;;;;12.55;100.00;98653.94;5050367;28;20029;-77
2022/09/26 11:16:58;;;;;;;31.27;25.67;;;;;;;12.53;100.00;98641.00;5050493;28;20112;-77
2022/09/26 11:19:25;;;;;;;29.58;23.95;;;;;;;12.58;100.00;98645.91;5050355;28;20021;-77
2022/09/26 11:22:00;;;;;;;33.75;24.10;;;;;;;12.67;100.00;98646.06;5050475;28;20436;-77
2022/09/26 11:24:58;;;;;;;28.08;21.58;;;;;;;12.94;100.00;98640.66;5050184;28;20033;-77
2022/09/26 11:27:29;;;;;;;29.73;22.27;;;;;;;13.14;100.00;98641.81;4971440;28;20035;-77
2022/09/26 11:30:00;;;;;;;28.63;22.10;;;;;;;13.21;100.00;98637.81;4971511;28;20038;-77
2022/09/26 11:32:39;;;;;;;25.98;20.52;;;;;;;13.14;100.00;98628.75;4971400;28;20125;-77
2022/09/26 11:35:15;;;;;;;28.38;22.00;;;;;;;13.17;100.00;98640.75;4971380;28;20031;-77
2022/09/26 11:38:08;;;;;;;27.02;22.85;;;;;;;13.06;100.00;98631.09;4971351;28;20098;-77
2022/09/26 11:40:53;;;;;;;27.77;21.75;;;;;;;13.01;100.00;98635.81;4971542;28;20022;-77